sensor_id;sensor_type;location;lat;lon;timestamp;P1;durP1;ratioP1;P2;durP2;ratioP2
56171;SDS011;42052;41.634;-0.946;2022-08-03T00:01:39;4.65;;;3.83;;
56171;SDS011;42052;41.634;-0.946;2022-08-03T00:04:06;4.57;;;3.85;;
56171;SDS011;42052;41.634;-0.946;2022-08-03T00:06:33;5.05;;;4.18;;
56171;SDS011;42052;41.634;-0.946;2022-08-03T00:08:59;4.40;;;3.78;;
56171;SDS011;42052;41.634;-0.946;2022-08-03T00:11:25;4.15;;;3.75;;
56171;SDS011;42052;41.634;-0.946;2022-08-03T00:13:51;4.63;;;3.67;;
56171;SDS011;42052;41.634;-0.946;2022-08-03T00:16:17;4.60;;;3.90;;
56171;SDS011;42052;41.634;-0.946;2022-08-03T00:18:43;5.57;;;3.67;;
56171;SDS011;42052;41.634;-0.946;2022-08-03T00:21:09;5.00;;;3.88;;
56171;SDS011;42052;41.634;-0.946;2022-08-03T00:23:36;4.13;;;3.60;;
56171;SDS011;42052;41.634;-0.946;2022-08-03T00:26:01;4.35;;;3.42;;
56171;SDS011;42052;41.634;-0.946;2022-08-03T00:28:27;5.03;;;3.72;;
56171;SDS011;42052;41.634;-0.946;2022-08-03T00:30:53;5.07;;;3.80;;
56171;SDS011;42052;41.634;-0.946;2022-08-03T00:33:22;4.88;;;3.95;;
56171;SDS011;42052;41.634;-0.946;2022-08-03T00:35:48;4.28;;;3.60;;
56171;SDS011;42052;41.634;-0.946;2022-08-03T00:38:14;4.50;;;3.78;;
56171;SDS011;42052;41.634;-0.946;2022-08-03T00:40:40;4.53;;;3.35;;
56171;SDS011;42052;41.634;-0.946;2022-08-03T00:43:06;5.18;;;3.70;;
56171;SDS011;42052;41.634;-0.946;2022-08-03T00:45:37;3.95;;;3.42;;
56171;SDS011;42052;41.634;-0.946;2022-08-03T00:48:04;4.10;;;3.30;;
56171;SDS011;42052;41.634;-0.946;2022-08-03T00:50:33;4.25;;;3.60;;
56171;SDS011;42052;41.634;-0.946;2022-08-03T00:53:00;4.22;;;3.70;;
56171;SDS011;42052;41.634;-0.946;2022-08-03T00:55:28;4.03;;;3.42;;
56171;SDS011;42052;41.634;-0.946;2022-08-03T00:57:54;4.35;;;3.42;;
56171;SDS011;42052;41.634;-0.946;2022-08-03T01:00:22;4.88;;;3.78;;
56171;SDS011;42052;41.634;-0.946;2022-08-03T01:02:50;5.00;;;3.17;;
56171;SDS011;42052;41.634;-0.946;2022-08-03T01:05:16;3.67;;;3.10;;
56171;SDS011;42052;41.634;-0.946;2022-08-03T01:13:42;4.72;;;3.20;;
56171;SDS011;42052;41.634;-0.946;2022-08-03T01:26:43;3.65;;;3.13;;
56171;SDS011;42052;41.634;-0.946;2022-08-03T01:32:41;4.57;;;3.37;;
56171;SDS011;42052;41.634;-0.946;2022-08-03T01:35:21;4.72;;;3.33;;
56171;SDS011;42052;41.634;-0.946;2022-08-03T01:37:57;5.15;;;3.20;;
56171;SDS011;42052;41.634;-0.946;2022-08-03T01:40:30;3.92;;;3.22;;
56171;SDS011;42052;41.634;-0.946;2022-08-03T01:43:01;3.20;;;2.88;;
56171;SDS011;42052;41.634;-0.946;2022-08-03T01:45:28;3.47;;;3.10;;
56171;SDS011;42052;41.634;-0.946;2022-08-03T01:47:55;3.67;;;3.10;;
56171;SDS011;42052;41.634;-0.946;2022-08-03T01:50:23;3.72;;;3.15;;
56171;SDS011;42052;41.634;-0.946;2022-08-03T01:52:52;3.65;;;3.25;;
56171;SDS011;42052;41.634;-0.946;2022-08-03T01:55:20;3.80;;;3.40;;
56171;SDS011;42052;41.634;-0.946;2022-08-03T01:57:49;3.95;;;3.35;;
56171;SDS011;42052;41.634;-0.946;2022-08-03T02:00:16;4.38;;;3.78;;
56171;SDS011;42052;41.634;-0.946;2022-08-03T02:02:43;3.95;;;3.20;;
56171;SDS011;42052;41.634;-0.946;2022-08-03T02:05:13;4.90;;;3.90;;
56171;SDS011;42052;41.634;-0.946;2022-08-03T02:07:40;4.63;;;3.60;;
56171;SDS011;42052;41.634;-0.946;2022-08-03T02:10:07;4.03;;;3.33;;
56171;SDS011;42052;41.634;-0.946;2022-08-03T02:12:36;4.18;;;3.38;;
56171;SDS011;42052;41.634;-0.946;2022-08-03T02:15:03;5.10;;;3.13;;
56171;SDS011;42052;41.634;-0.946;2022-08-03T02:17:31;3.70;;;3.03;;
56171;SDS011;42052;41.634;-0.946;2022-08-03T02:19:58;3.65;;;2.60;;
56171;SDS011;42052;41.634;-0.946;2022-08-03T02:22:25;4.00;;;2.67;;
56171;SDS011;42052;41.634;-0.946;2022-08-03T02:24:53;4.57;;;2.97;;
56171;SDS011;42052;41.634;-0.946;2022-08-03T02:27:21;3.88;;;2.50;;
56171;SDS011;42052;41.634;-0.946;2022-08-03T02:29:50;3.63;;;2.72;;
56171;SDS011;42052;41.634;-0.946;2022-08-03T02:32:20;4.63;;;2.97;;
56171;SDS011;42052;41.634;-0.946;2022-08-03T02:34:55;3.38;;;2.70;;
56171;SDS011;42052;41.634;-0.946;2022-08-03T02:37:25;5.88;;;2.60;;
56171;SDS011;42052;41.634;-0.946;2022-08-03T02:40:00;4.47;;;2.33;;
56171;SDS011;42052;41.634;-0.946;2022-08-03T02:42:28;4.90;;;2.75;;
56171;SDS011;42052;41.634;-0.946;2022-08-03T02:44:58;5.20;;;2.80;;
56171;SDS011;42052;41.634;-0.946;2022-08-03T02:47:27;4.93;;;2.60;;
56171;SDS011;42052;41.634;-0.946;2022-08-03T02:49:54;4.45;;;2.50;;
56171;SDS011;42052;41.634;-0.946;2022-08-03T02:52:27;7.18;;;2.78;;
56171;SDS011;42052;41.634;-0.946;2022-08-03T02:54:59;4.63;;;2.20;;
56171;SDS011;42052;41.634;-0.946;2022-08-03T02:57:26;4.25;;;2.17;;
56171;SDS011;42052;41.634;-0.946;2022-08-03T02:59:54;2.72;;;2.05;;
56171;SDS011;42052;41.634;-0.946;2022-08-03T03:02:21;5.32;;;2.25;;
56171;SDS011;42052;41.634;-0.946;2022-08-03T03:04:49;4.65;;;2.20;;
56171;SDS011;42052;41.634;-0.946;2022-08-03T03:07:17;3.65;;;2.20;;
56171;SDS011;42052;41.634;-0.946;2022-08-03T03:09:44;4.03;;;2.22;;
56171;SDS011;42052;41.634;-0.946;2022-08-03T03:12:11;4.00;;;2.20;;
56171;SDS011;42052;41.634;-0.946;2022-08-03T03:14:38;4.40;;;2.40;;
56171;SDS011;42052;41.634;-0.946;2022-08-03T03:17:11;2.88;;;2.10;;
56171;SDS011;42052;41.634;-0.946;2022-08-03T03:19:40;3.83;;;2.08;;
56171;SDS011;42052;41.634;-0.946;2022-08-03T03:22:09;4.00;;;2.08;;
56171;SDS011;42052;41.634;-0.946;2022-08-03T03:24:36;4.30;;;2.42;;
56171;SDS011;42052;41.634;-0.946;2022-08-03T03:27:03;2.38;;;2.03;;
56171;SDS011;42052;41.634;-0.946;2022-08-03T03:29:31;3.47;;;2.25;;
56171;SDS011;42052;41.634;-0.946;2022-08-03T03:31:59;3.20;;;2.08;;
56171;SDS011;42052;41.634;-0.946;2022-08-03T03:34:25;6.15;;;2.22;;
56171;SDS011;42052;41.634;-0.946;2022-08-03T03:36:53;4.80;;;1.92;;
56171;SDS011;42052;41.634;-0.946;2022-08-03T03:39:19;3.70;;;2.20;;
56171;SDS011;42052;41.634;-0.946;2022-08-03T03:41:45;3.33;;;2.08;;
56171;SDS011;42052;41.634;-0.946;2022-08-03T03:44:10;5.35;;;2.17;;
56171;SDS011;42052;41.634;-0.946;2022-08-03T03:46:37;4.57;;;2.10;;
56171;SDS011;42052;41.634;-0.946;2022-08-03T03:49:04;3.00;;;1.90;;
56171;SDS011;42052;41.634;-0.946;2022-08-03T03:51:33;3.25;;;2.05;;
56171;SDS011;42052;41.634;-0.946;2022-08-03T03:54:00;2.50;;;1.80;;
56171;SDS011;42052;41.634;-0.946;2022-08-03T03:56:27;3.47;;;2.08;;
56171;SDS011;42052;41.634;-0.946;2022-08-03T03:58:53;4.07;;;1.90;;
56171;SDS011;42052;41.634;-0.946;2022-08-03T04:01:20;2.63;;;2.03;;
56171;SDS011;42052;41.634;-0.946;2022-08-03T04:03:46;3.17;;;2.00;;
56171;SDS011;42052;41.634;-0.946;2022-08-03T04:06:12;2.53;;;2.05;;
56171;SDS011;42052;41.634;-0.946;2022-08-03T04:08:57;2.58;;;1.80;;
56171;SDS011;42052;41.634;-0.946;2022-08-03T04:11:52;4.45;;;1.92;;
56171;SDS011;42052;41.634;-0.946;2022-08-03T04:14:23;5.53;;;1.88;;
56171;SDS011;42052;41.634;-0.946;2022-08-03T04:16:55;3.88;;;2.05;;
56171;SDS011;42052;41.634;-0.946;2022-08-03T04:19:27;5.47;;;2.22;;
56171;SDS011;42052;41.634;-0.946;2022-08-03T04:21:59;5.57;;;1.98;;
56171;SDS011;42052;41.634;-0.946;2022-08-03T04:24:37;3.13;;;2.03;;
56171;SDS011;42052;41.634;-0.946;2022-08-03T04:27:06;3.58;;;2.10;;
56171;SDS011;42052;41.634;-0.946;2022-08-03T04:29:34;4.30;;;1.98;;
56171;SDS011;42052;41.634;-0.946;2022-08-03T04:32:01;5.15;;;2.10;;
56171;SDS011;42052;41.634;-0.946;2022-08-03T04:34:29;4.25;;;1.95;;
56171;SDS011;42052;41.634;-0.946;2022-08-03T04:36:57;2.92;;;1.77;;
56171;SDS011;42052;41.634;-0.946;2022-08-03T04:39:26;3.33;;;2.15;;
56171;SDS011;42052;41.634;-0.946;2022-08-03T04:41:55;2.33;;;1.73;;
56171;SDS011;42052;41.634;-0.946;2022-08-03T04:44:30;2.58;;;2.05;;
56171;SDS011;42052;41.634;-0.946;2022-08-03T04:46:59;3.50;;;1.90;;
56171;SDS011;42052;41.634;-0.946;2022-08-03T04:49:26;1.88;;;1.67;;
56171;SDS011;42052;41.634;-0.946;2022-08-03T04:51:54;3.83;;;2.05;;
56171;SDS011;42052;41.634;-0.946;2022-08-03T04:54:19;5.43;;;1.92;;
56171;SDS011;42052;41.634;-0.946;2022-08-03T04:56:45;2.35;;;1.60;;
56171;SDS011;42052;41.634;-0.946;2022-08-03T04:59:11;3.50;;;1.90;;
56171;SDS011;42052;41.634;-0.946;2022-08-03T05:01:38;2.17;;;1.90;;
56171;SDS011;42052;41.634;-0.946;2022-08-03T05:04:05;3.08;;;1.85;;
56171;SDS011;42052;41.634;-0.946;2022-08-03T05:06:31;3.58;;;1.63;;
56171;SDS011;42052;41.634;-0.946;2022-08-03T05:08:57;2.35;;;1.60;;
56171;SDS011;42052;41.634;-0.946;2022-08-03T05:11:23;4.00;;;1.70;;
56171;SDS011;42052;41.634;-0.946;2022-08-03T05:13:48;3.22;;;2.00;;
56171;SDS011;42052;41.634;-0.946;2022-08-03T05:16:14;2.60;;;1.65;;
56171;SDS011;42052;41.634;-0.946;2022-08-03T05:18:40;3.47;;;2.00;;
56171;SDS011;42052;41.634;-0.946;2022-08-03T05:21:07;2.95;;;1.95;;
56171;SDS011;42052;41.634;-0.946;2022-08-03T05:23:34;4.03;;;1.77;;
56171;SDS011;42052;41.634;-0.946;2022-08-03T05:26:01;2.65;;;1.80;;
56171;SDS011;42052;41.634;-0.946;2022-08-03T05:28:27;8.88;;;2.20;;
56171;SDS011;42052;41.634;-0.946;2022-08-03T05:30:53;19.95;;;4.22;;
56171;SDS011;42052;41.634;-0.946;2022-08-03T05:33:19;23.88;;;4.88;;
56171;SDS011;42052;41.634;-0.946;2022-08-03T05:35:45;22.88;;;5.10;;
56171;SDS011;42052;41.634;-0.946;2022-08-03T05:38:11;27.70;;;5.63;;
56171;SDS011;42052;41.634;-0.946;2022-08-03T05:40:37;30.13;;;7.18;;
56171;SDS011;42052;41.634;-0.946;2022-08-03T05:43:03;28.50;;;5.65;;
56171;SDS011;42052;41.634;-0.946;2022-08-03T05:45:28;29.60;;;6.22;;
56171;SDS011;42052;41.634;-0.946;2022-08-03T05:47:54;21.55;;;5.90;;
56171;SDS011;42052;41.634;-0.946;2022-08-03T05:50:20;24.65;;;6.10;;
56171;SDS011;42052;41.634;-0.946;2022-08-03T05:52:46;22.67;;;6.10;;
56171;SDS011;42052;41.634;-0.946;2022-08-03T05:55:12;25.00;;;6.18;;
56171;SDS011;42052;41.634;-0.946;2022-08-03T05:57:39;26.55;;;6.10;;
56171;SDS011;42052;41.634;-0.946;2022-08-03T06:00:08;20.83;;;5.50;;
56171;SDS011;42052;41.634;-0.946;2022-08-03T06:02:35;19.85;;;5.45;;
56171;SDS011;42052;41.634;-0.946;2022-08-03T06:05:02;21.40;;;5.93;;
56171;SDS011;42052;41.634;-0.946;2022-08-03T06:07:28;20.42;;;5.63;;
56171;SDS011;42052;41.634;-0.946;2022-08-03T06:09:54;19.90;;;5.47;;
56171;SDS011;42052;41.634;-0.946;2022-08-03T06:12:20;13.93;;;4.60;;
56171;SDS011;42052;41.634;-0.946;2022-08-03T06:14:46;17.55;;;5.25;;
56171;SDS011;42052;41.634;-0.946;2022-08-03T06:17:12;17.63;;;5.22;;
56171;SDS011;42052;41.634;-0.946;2022-08-03T06:19:38;16.90;;;5.07;;
56171;SDS011;42052;41.634;-0.946;2022-08-03T06:22:04;19.95;;;5.35;;
56171;SDS011;42052;41.634;-0.946;2022-08-03T06:24:30;19.10;;;5.13;;
56171;SDS011;42052;41.634;-0.946;2022-08-03T06:26:57;16.40;;;4.63;;
56171;SDS011;42052;41.634;-0.946;2022-08-03T06:29:22;16.13;;;4.90;;
56171;SDS011;42052;41.634;-0.946;2022-08-03T06:31:48;15.43;;;4.70;;
56171;SDS011;42052;41.634;-0.946;2022-08-03T06:34:14;15.20;;;4.88;;
56171;SDS011;42052;41.634;-0.946;2022-08-03T06:36:40;16.50;;;4.38;;
56171;SDS011;42052;41.634;-0.946;2022-08-03T06:39:06;12.68;;;4.28;;
56171;SDS011;42052;41.634;-0.946;2022-08-03T06:41:32;13.52;;;4.53;;
56171;SDS011;42052;41.634;-0.946;2022-08-03T06:43:58;14.30;;;4.40;;
56171;SDS011;42052;41.634;-0.946;2022-08-03T06:46:24;12.52;;;4.40;;
56171;SDS011;42052;41.634;-0.946;2022-08-03T06:48:49;13.25;;;4.20;;
56171;SDS011;42052;41.634;-0.946;2022-08-03T06:51:15;13.77;;;4.70;;
56171;SDS011;42052;41.634;-0.946;2022-08-03T06:53:41;12.48;;;4.35;;
56171;SDS011;42052;41.634;-0.946;2022-08-03T06:56:07;11.50;;;4.18;;
56171;SDS011;42052;41.634;-0.946;2022-08-03T06:58:33;13.65;;;4.53;;
56171;SDS011;42052;41.634;-0.946;2022-08-03T07:00:59;11.30;;;4.18;;
56171;SDS011;42052;41.634;-0.946;2022-08-03T07:03:25;11.68;;;4.30;;
56171;SDS011;42052;41.634;-0.946;2022-08-03T07:05:51;8.65;;;3.80;;
56171;SDS011;42052;41.634;-0.946;2022-08-03T07:08:17;11.85;;;4.32;;
56171;SDS011;42052;41.634;-0.946;2022-08-03T07:10:43;11.00;;;3.95;;
56171;SDS011;42052;41.634;-0.946;2022-08-03T07:13:09;11.10;;;4.38;;
56171;SDS011;42052;41.634;-0.946;2022-08-03T07:15:36;11.30;;;4.20;;
56171;SDS011;42052;41.634;-0.946;2022-08-03T07:18:01;13.60;;;4.38;;
56171;SDS011;42052;41.634;-0.946;2022-08-03T07:20:27;9.45;;;4.05;;
56171;SDS011;42052;41.634;-0.946;2022-08-03T07:22:53;10.07;;;3.75;;
56171;SDS011;42052;41.634;-0.946;2022-08-03T07:25:19;9.80;;;3.75;;
56171;SDS011;42052;41.634;-0.946;2022-08-03T07:27:46;12.02;;;4.15;;
56171;SDS011;42052;41.634;-0.946;2022-08-03T07:30:13;10.77;;;3.90;;
56171;SDS011;42052;41.634;-0.946;2022-08-03T07:32:40;9.00;;;3.65;;
56171;SDS011;42052;41.634;-0.946;2022-08-03T07:35:07;8.52;;;3.70;;
56171;SDS011;42052;41.634;-0.946;2022-08-03T07:37:33;9.73;;;3.70;;
56171;SDS011;42052;41.634;-0.946;2022-08-03T07:39:59;8.60;;;3.63;;
56171;SDS011;42052;41.634;-0.946;2022-08-03T07:42:26;9.45;;;3.75;;
56171;SDS011;42052;41.634;-0.946;2022-08-03T07:44:53;8.27;;;3.40;;
56171;SDS011;42052;41.634;-0.946;2022-08-03T07:47:20;10.50;;;3.58;;
56171;SDS011;42052;41.634;-0.946;2022-08-03T07:49:49;9.35;;;3.50;;
56171;SDS011;42052;41.634;-0.946;2022-08-03T07:52:15;8.05;;;3.53;;
56171;SDS011;42052;41.634;-0.946;2022-08-03T07:54:59;7.47;;;3.13;;
56171;SDS011;42052;41.634;-0.946;2022-08-03T07:57:25;10.68;;;3.58;;
56171;SDS011;42052;41.634;-0.946;2022-08-03T07:59:51;9.60;;;3.53;;
56171;SDS011;42052;41.634;-0.946;2022-08-03T08:02:17;7.07;;;3.67;;
56171;SDS011;42052;41.634;-0.946;2022-08-03T08:04:43;8.82;;;3.25;;
56171;SDS011;42052;41.634;-0.946;2022-08-03T08:07:09;7.07;;;3.17;;
56171;SDS011;42052;41.634;-0.946;2022-08-03T08:09:35;8.77;;;3.60;;
56171;SDS011;42052;41.634;-0.946;2022-08-03T08:12:01;7.50;;;3.42;;
56171;SDS011;42052;41.634;-0.946;2022-08-03T08:14:27;8.15;;;3.35;;
56171;SDS011;42052;41.634;-0.946;2022-08-03T08:16:52;7.93;;;3.45;;
56171;SDS011;42052;41.634;-0.946;2022-08-03T08:19:18;7.93;;;3.30;;
56171;SDS011;42052;41.634;-0.946;2022-08-03T08:21:44;7.35;;;3.20;;
56171;SDS011;42052;41.634;-0.946;2022-08-03T08:24:10;8.07;;;3.22;;
56171;SDS011;42052;41.634;-0.946;2022-08-03T08:26:36;6.70;;;3.40;;
56171;SDS011;42052;41.634;-0.946;2022-08-03T08:29:02;10.40;;;3.40;;
56171;SDS011;42052;41.634;-0.946;2022-08-03T08:31:28;6.93;;;3.20;;
56171;SDS011;42052;41.634;-0.946;2022-08-03T08:33:54;5.72;;;3.00;;
56171;SDS011;42052;41.634;-0.946;2022-08-03T08:36:20;7.18;;;3.30;;
56171;SDS011;42052;41.634;-0.946;2022-08-03T08:38:46;6.82;;;3.13;;
56171;SDS011;42052;41.634;-0.946;2022-08-03T08:41:12;6.93;;;2.90;;
56171;SDS011;42052;41.634;-0.946;2022-08-03T08:43:39;9.88;;;3.47;;
56171;SDS011;42052;41.634;-0.946;2022-08-03T08:46:06;7.03;;;3.08;;
56171;SDS011;42052;41.634;-0.946;2022-08-03T08:48:38;7.43;;;3.10;;
56171;SDS011;42052;41.634;-0.946;2022-08-03T08:51:05;5.53;;;3.00;;
56171;SDS011;42052;41.634;-0.946;2022-08-03T08:53:36;8.23;;;3.30;;
56171;SDS011;42052;41.634;-0.946;2022-08-03T08:56:05;7.82;;;3.20;;
56171;SDS011;42052;41.634;-0.946;2022-08-03T08:58:36;8.00;;;3.40;;
56171;SDS011;42052;41.634;-0.946;2022-08-03T09:01:05;7.78;;;3.17;;
56171;SDS011;42052;41.634;-0.946;2022-08-03T09:03:32;7.40;;;3.38;;
56171;SDS011;42052;41.634;-0.946;2022-08-03T09:05:59;6.25;;;2.97;;
56171;SDS011;42052;41.634;-0.946;2022-08-03T09:08:26;5.15;;;2.90;;
56171;SDS011;42052;41.634;-0.946;2022-08-03T09:10:55;7.57;;;3.15;;
56171;SDS011;42052;41.634;-0.946;2022-08-03T09:13:21;7.07;;;3.03;;
56171;SDS011;42052;41.634;-0.946;2022-08-03T09:15:47;5.97;;;3.03;;
56171;SDS011;42052;41.634;-0.946;2022-08-03T09:18:22;7.45;;;2.95;;
56171;SDS011;42052;41.634;-0.946;2022-08-03T09:20:59;9.82;;;3.28;;
56171;SDS011;42052;41.634;-0.946;2022-08-03T09:23:50;7.18;;;2.90;;
56171;SDS011;42052;41.634;-0.946;2022-08-03T09:26:25;5.88;;;2.90;;
56171;SDS011;42052;41.634;-0.946;2022-08-03T09:28:55;6.32;;;2.70;;
56171;SDS011;42052;41.634;-0.946;2022-08-03T09:31:35;5.38;;;2.40;;
56171;SDS011;42052;41.634;-0.946;2022-08-03T09:34:03;5.38;;;2.80;;
56171;SDS011;42052;41.634;-0.946;2022-08-03T09:36:37;4.50;;;2.65;;
56171;SDS011;42052;41.634;-0.946;2022-08-03T09:39:09;6.28;;;2.72;;
56171;SDS011;42052;41.634;-0.946;2022-08-03T09:41:40;7.82;;;3.00;;
56171;SDS011;42052;41.634;-0.946;2022-08-03T09:44:08;5.35;;;3.00;;
56171;SDS011;42052;41.634;-0.946;2022-08-03T09:46:46;5.30;;;2.95;;
56171;SDS011;42052;41.634;-0.946;2022-08-03T09:49:14;5.35;;;2.80;;
56171;SDS011;42052;41.634;-0.946;2022-08-03T09:51:40;5.13;;;2.85;;
56171;SDS011;42052;41.634;-0.946;2022-08-03T09:54:06;6.15;;;2.72;;
56171;SDS011;42052;41.634;-0.946;2022-08-03T09:56:42;6.40;;;2.75;;
56171;SDS011;42052;41.634;-0.946;2022-08-03T09:59:10;5.57;;;2.88;;
56171;SDS011;42052;41.634;-0.946;2022-08-03T10:01:37;4.95;;;2.50;;
56171;SDS011;42052;41.634;-0.946;2022-08-03T10:04:10;5.10;;;2.63;;
56171;SDS011;42052;41.634;-0.946;2022-08-03T10:06:38;4.53;;;2.70;;
56171;SDS011;42052;41.634;-0.946;2022-08-03T10:09:09;7.03;;;2.85;;
56171;SDS011;42052;41.634;-0.946;2022-08-03T10:11:42;4.60;;;2.70;;
56171;SDS011;42052;41.634;-0.946;2022-08-03T10:14:09;6.30;;;2.80;;
56171;SDS011;42052;41.634;-0.946;2022-08-03T10:16:43;5.78;;;3.15;;
56171;SDS011;42052;41.634;-0.946;2022-08-03T10:19:09;5.22;;;2.65;;
56171;SDS011;42052;41.634;-0.946;2022-08-03T10:21:39;4.30;;;2.60;;
56171;SDS011;42052;41.634;-0.946;2022-08-03T10:24:07;5.53;;;2.80;;
56171;SDS011;42052;41.634;-0.946;2022-08-03T10:26:35;4.50;;;2.60;;
56171;SDS011;42052;41.634;-0.946;2022-08-03T10:29:04;4.15;;;2.55;;
56171;SDS011;42052;41.634;-0.946;2022-08-03T10:31:40;4.28;;;2.30;;
56171;SDS011;42052;41.634;-0.946;2022-08-03T10:34:14;5.10;;;2.70;;
56171;SDS011;42052;41.634;-0.946;2022-08-03T10:36:43;4.45;;;2.45;;
56171;SDS011;42052;41.634;-0.946;2022-08-03T10:39:11;4.65;;;2.38;;
56171;SDS011;42052;41.634;-0.946;2022-08-03T10:41:39;4.28;;;2.58;;
56171;SDS011;42052;41.634;-0.946;2022-08-03T10:44:19;5.07;;;2.65;;
56171;SDS011;42052;41.634;-0.946;2022-08-03T10:46:48;4.55;;;2.78;;
56171;SDS011;42052;41.634;-0.946;2022-08-03T10:49:15;4.97;;;2.40;;
56171;SDS011;42052;41.634;-0.946;2022-08-03T10:51:43;4.97;;;2.67;;
56171;SDS011;42052;41.634;-0.946;2022-08-03T11:00:13;3.35;;;2.28;;
56171;SDS011;42052;41.634;-0.946;2022-08-03T11:05:26;5.45;;;2.50;;
56171;SDS011;42052;41.634;-0.946;2022-08-03T11:10:46;4.45;;;2.75;;
56171;SDS011;42052;41.634;-0.946;2022-08-03T11:13:14;3.85;;;2.38;;
56171;SDS011;42052;41.634;-0.946;2022-08-03T11:15:43;3.00;;;1.88;;
56171;SDS011;42052;41.634;-0.946;2022-08-03T11:18:10;4.80;;;2.40;;
56171;SDS011;42052;41.634;-0.946;2022-08-03T11:20:51;3.60;;;2.38;;
56171;SDS011;42052;41.634;-0.946;2022-08-03T11:26:10;4.80;;;2.75;;
56171;SDS011;42052;41.634;-0.946;2022-08-03T11:28:36;3.90;;;2.20;;
56171;SDS011;42052;41.634;-0.946;2022-08-03T11:34:10;3.92;;;2.40;;
56171;SDS011;42052;41.634;-0.946;2022-08-03T11:39:44;3.72;;;2.08;;
56171;SDS011;42052;41.634;-0.946;2022-08-03T11:44:53;3.28;;;2.03;;
56171;SDS011;42052;41.634;-0.946;2022-08-03T11:47:20;3.85;;;2.00;;
56171;SDS011;42052;41.634;-0.946;2022-08-03T11:49:47;4.55;;;2.40;;
56171;SDS011;42052;41.634;-0.946;2022-08-03T11:52:14;4.20;;;2.47;;
56171;SDS011;42052;41.634;-0.946;2022-08-03T11:54:41;3.55;;;1.98;;
56171;SDS011;42052;41.634;-0.946;2022-08-03T11:57:08;4.05;;;2.50;;
56171;SDS011;42052;41.634;-0.946;2022-08-03T11:59:34;3.40;;;2.45;;
56171;SDS011;42052;41.634;-0.946;2022-08-03T12:02:19;3.35;;;2.22;;
56171;SDS011;42052;41.634;-0.946;2022-08-03T12:04:55;3.22;;;2.10;;
56171;SDS011;42052;41.634;-0.946;2022-08-03T12:07:24;3.90;;;2.10;;
56171;SDS011;42052;41.634;-0.946;2022-08-03T12:10:04;4.15;;;2.25;;
56171;SDS011;42052;41.634;-0.946;2022-08-03T12:12:33;3.17;;;1.98;;
56171;SDS011;42052;41.634;-0.946;2022-08-03T12:15:00;4.22;;;2.10;;
56171;SDS011;42052;41.634;-0.946;2022-08-03T12:17:37;4.05;;;2.20;;
56171;SDS011;42052;41.634;-0.946;2022-08-03T12:20:05;4.03;;;2.20;;
56171;SDS011;42052;41.634;-0.946;2022-08-03T12:22:37;4.28;;;2.20;;
56171;SDS011;42052;41.634;-0.946;2022-08-03T12:25:04;4.10;;;2.23;;
56171;SDS011;42052;41.634;-0.946;2022-08-03T12:27:31;4.78;;;2.40;;
56171;SDS011;42052;41.634;-0.946;2022-08-03T12:29:58;3.70;;;2.28;;
56171;SDS011;42052;41.634;-0.946;2022-08-03T12:32:26;4.78;;;2.60;;
56171;SDS011;42052;41.634;-0.946;2022-08-03T12:34:53;4.15;;;2.25;;
56171;SDS011;42052;41.634;-0.946;2022-08-03T12:37:23;4.50;;;2.13;;
56171;SDS011;42052;41.634;-0.946;2022-08-03T12:39:50;3.78;;;2.15;;
56171;SDS011;42052;41.634;-0.946;2022-08-03T12:42:20;3.67;;;2.20;;
56171;SDS011;42052;41.634;-0.946;2022-08-03T12:44:53;4.22;;;2.50;;
56171;SDS011;42052;41.634;-0.946;2022-08-03T12:47:19;6.03;;;2.70;;
56171;SDS011;42052;41.634;-0.946;2022-08-03T12:49:48;5.88;;;2.55;;
56171;SDS011;42052;41.634;-0.946;2022-08-03T12:52:16;4.50;;;2.42;;
56171;SDS011;42052;41.634;-0.946;2022-08-03T12:54:54;5.05;;;2.70;;
56171;SDS011;42052;41.634;-0.946;2022-08-03T12:57:21;5.72;;;2.80;;
56171;SDS011;42052;41.634;-0.946;2022-08-03T12:59:47;3.60;;;2.20;;
56171;SDS011;42052;41.634;-0.946;2022-08-03T13:04:44;4.40;;;2.60;;
56171;SDS011;42052;41.634;-0.946;2022-08-03T13:07:11;3.55;;;2.22;;
56171;SDS011;42052;41.634;-0.946;2022-08-03T13:12:13;4.35;;;2.47;;
56171;SDS011;42052;41.634;-0.946;2022-08-03T13:14:40;4.82;;;2.70;;
56171;SDS011;42052;41.634;-0.946;2022-08-03T13:17:07;4.28;;;2.40;;
56171;SDS011;42052;41.634;-0.946;2022-08-03T13:19:34;3.83;;;2.70;;
56171;SDS011;42052;41.634;-0.946;2022-08-03T13:22:09;4.50;;;2.60;;
56171;SDS011;42052;41.634;-0.946;2022-08-03T13:24:36;5.30;;;2.72;;
56171;SDS011;42052;41.634;-0.946;2022-08-03T13:27:02;5.80;;;2.65;;
56171;SDS011;42052;41.634;-0.946;2022-08-03T13:29:30;5.15;;;2.45;;
56171;SDS011;42052;41.634;-0.946;2022-08-03T13:31:56;4.93;;;2.63;;
56171;SDS011;42052;41.634;-0.946;2022-08-03T13:34:22;4.13;;;2.70;;
56171;SDS011;42052;41.634;-0.946;2022-08-03T13:36:48;5.82;;;2.97;;
56171;SDS011;42052;41.634;-0.946;2022-08-03T13:39:14;6.38;;;3.22;;
56171;SDS011;42052;41.634;-0.946;2022-08-03T13:41:40;4.28;;;2.55;;
56171;SDS011;42052;41.634;-0.946;2022-08-03T13:44:06;5.28;;;2.70;;
56171;SDS011;42052;41.634;-0.946;2022-08-03T13:46:32;4.53;;;2.60;;
56171;SDS011;42052;41.634;-0.946;2022-08-03T13:48:58;5.40;;;2.72;;
56171;SDS011;42052;41.634;-0.946;2022-08-03T13:51:24;5.07;;;2.72;;
56171;SDS011;42052;41.634;-0.946;2022-08-03T13:53:50;6.18;;;2.72;;
56171;SDS011;42052;41.634;-0.946;2022-08-03T13:56:16;5.03;;;2.80;;
56171;SDS011;42052;41.634;-0.946;2022-08-03T13:58:42;5.40;;;2.70;;
56171;SDS011;42052;41.634;-0.946;2022-08-03T14:01:08;6.00;;;2.92;;
56171;SDS011;42052;41.634;-0.946;2022-08-03T14:03:34;6.75;;;2.90;;
56171;SDS011;42052;41.634;-0.946;2022-08-03T14:06:00;4.68;;;2.67;;
56171;SDS011;42052;41.634;-0.946;2022-08-03T14:08:25;7.05;;;3.17;;
56171;SDS011;42052;41.634;-0.946;2022-08-03T14:10:51;5.72;;;2.63;;
56171;SDS011;42052;41.634;-0.946;2022-08-03T14:13:17;5.60;;;3.05;;
56171;SDS011;42052;41.634;-0.946;2022-08-03T14:15:43;5.57;;;2.67;;
56171;SDS011;42052;41.634;-0.946;2022-08-03T14:18:09;4.78;;;2.58;;
56171;SDS011;42052;41.634;-0.946;2022-08-03T14:20:35;5.00;;;2.92;;
56171;SDS011;42052;41.634;-0.946;2022-08-03T14:23:01;4.97;;;2.97;;
56171;SDS011;42052;41.634;-0.946;2022-08-03T14:25:27;5.13;;;2.95;;
56171;SDS011;42052;41.634;-0.946;2022-08-03T14:27:54;5.03;;;2.72;;
56171;SDS011;42052;41.634;-0.946;2022-08-03T14:30:20;6.13;;;2.85;;
56171;SDS011;42052;41.634;-0.946;2022-08-03T14:32:46;5.45;;;2.97;;
56171;SDS011;42052;41.634;-0.946;2022-08-03T14:35:12;5.63;;;2.70;;
56171;SDS011;42052;41.634;-0.946;2022-08-03T14:37:38;5.35;;;2.70;;
56171;SDS011;42052;41.634;-0.946;2022-08-03T14:40:04;4.30;;;2.80;;
56171;SDS011;42052;41.634;-0.946;2022-08-03T14:42:30;5.38;;;2.65;;
56171;SDS011;42052;41.634;-0.946;2022-08-03T14:44:56;5.90;;;2.90;;
56171;SDS011;42052;41.634;-0.946;2022-08-03T14:47:22;7.65;;;3.30;;
56171;SDS011;42052;41.634;-0.946;2022-08-03T14:49:48;5.22;;;2.67;;
56171;SDS011;42052;41.634;-0.946;2022-08-03T14:52:14;4.32;;;2.70;;
56171;SDS011;42052;41.634;-0.946;2022-08-03T14:54:40;3.97;;;2.63;;
56171;SDS011;42052;41.634;-0.946;2022-08-03T14:57:06;4.40;;;2.80;;
56171;SDS011;42052;41.634;-0.946;2022-08-03T14:59:32;5.35;;;2.88;;
56171;SDS011;42052;41.634;-0.946;2022-08-03T15:01:58;5.05;;;2.80;;
56171;SDS011;42052;41.634;-0.946;2022-08-03T15:04:23;5.03;;;2.80;;
56171;SDS011;42052;41.634;-0.946;2022-08-03T15:06:49;5.13;;;2.75;;
56171;SDS011;42052;41.634;-0.946;2022-08-03T15:09:15;3.80;;;2.60;;
56171;SDS011;42052;41.634;-0.946;2022-08-03T15:11:41;5.53;;;2.60;;
56171;SDS011;42052;41.634;-0.946;2022-08-03T15:14:07;5.38;;;2.80;;
56171;SDS011;42052;41.634;-0.946;2022-08-03T15:16:33;6.68;;;2.60;;
56171;SDS011;42052;41.634;-0.946;2022-08-03T15:18:59;4.07;;;2.78;;
56171;SDS011;42052;41.634;-0.946;2022-08-03T15:21:25;4.07;;;2.58;;
56171;SDS011;42052;41.634;-0.946;2022-08-03T15:23:50;6.32;;;2.70;;
56171;SDS011;42052;41.634;-0.946;2022-08-03T15:26:18;5.63;;;2.75;;